createdAt,value
2018-02-01T00:01:40.564Z,45.43
2018-02-01T00:04:09.741Z,53.20
2018-02-01T00:06:37.626Z,52.77
2018-02-01T00:09:06.150Z,49.50
2018-02-01T00:11:34.084Z,45.27
2018-02-01T00:14:02.384Z,49.80
2018-02-01T00:16:30.050Z,49.30
2018-02-01T00:18:57.614Z,49.07
2018-02-01T00:21:25.128Z,56.57
2018-02-01T00:23:52.689Z,47.57
2018-02-01T00:26:20.214Z,49.17
2018-02-01T00:28:47.775Z,49.00
2018-02-01T00:31:15.949Z,45.77
2018-02-01T00:33:43.474Z,50.70
2018-02-01T00:36:11.921Z,47.30
2018-02-01T00:38:39.512Z,49.03
2018-02-01T00:41:07.067Z,46.13
2018-02-01T00:43:35.501Z,48.63
2018-02-01T00:46:03.075Z,43.50
2018-02-01T00:48:30.633Z,50.07
2018-02-01T00:50:58.312Z,45.50
2018-02-01T00:53:26.630Z,45.80
2018-02-01T00:55:54.251Z,46.23
2018-02-01T00:58:21.861Z,44.27
2018-02-01T01:00:49.412Z,46.90
2018-02-01T01:03:16.983Z,44.00
2018-02-01T01:05:44.635Z,42.47
2018-02-01T01:08:12.157Z,45.40
2018-02-01T01:10:40.476Z,44.00
2018-02-01T01:13:08.844Z,56.23
2018-02-01T01:15:36.395Z,42.57
2018-02-01T01:18:03.954Z,45.20
2018-02-01T01:20:31.968Z,47.20
2018-02-01T01:22:59.501Z,45.73
2018-02-01T01:25:27.144Z,49.33
2018-02-01T01:27:54.749Z,44.40
2018-02-01T01:30:22.346Z,46.50
2018-02-01T01:32:49.892Z,46.27
2018-02-01T01:35:17.520Z,45.83
2018-02-01T01:37:45.848Z,46.03
2018-02-01T01:40:14.159Z,47.17
2018-02-01T01:42:41.711Z,46.77
2018-02-01T01:45:09.252Z,49.50
2018-02-01T01:47:36.782Z,48.33
2018-02-01T01:50:04.617Z,48.37
2018-02-01T01:52:32.186Z,48.50
2018-02-01T01:54:59.740Z,46.17
2018-02-01T01:57:27.342Z,51.77
2018-02-01T01:59:55.674Z,50.90
2018-02-01T02:02:23.223Z,50.60
2018-02-01T02:04:50.809Z,53.73
2018-02-01T02:07:18.399Z,50.90
2018-02-01T02:09:45.958Z,52.90
2018-02-01T02:12:13.543Z,56.17
2018-02-01T02:14:41.225Z,59.93
2018-02-01T02:17:08.767Z,54.10
2018-02-01T02:19:37.110Z,56.13
2018-02-01T02:22:05.420Z,53.53
2018-02-01T02:24:33.724Z,54.47
2018-02-01T02:27:01.305Z,53.63
2018-02-01T02:29:28.867Z,57.03
2018-02-01T02:31:56.386Z,57.30
2018-02-01T02:34:23.992Z,55.80
2018-02-01T02:36:51.578Z,55.13
2018-02-01T02:39:19.103Z,58.53
2018-02-01T02:41:46.682Z,60.50
2018-02-01T02:44:14.270Z,54.50
2018-02-01T02:46:42.775Z,58.73
2018-02-01T02:49:10.367Z,58.50
2018-02-01T02:51:37.926Z,61.50
2018-02-01T02:54:05.536Z,55.17
2018-02-01T02:56:33.301Z,64.27
2018-02-01T02:59:01.596Z,55.80
2018-02-01T03:01:29.123Z,51.90
2018-02-01T03:03:57.471Z,57.07
2018-02-01T03:06:25.009Z,55.93
2018-02-01T03:08:52.693Z,52.47
2018-02-01T03:11:21.372Z,55.23
2018-02-01T03:13:49.661Z,57.80
2018-02-01T03:16:17.372Z,53.87
2018-02-01T03:18:44.917Z,54.33
2018-02-01T03:21:13.236Z,54.77
2018-02-01T03:23:40.782Z,56.87
2018-02-01T03:26:08.348Z,58.43
2018-02-01T03:28:35.895Z,59.13
2018-02-01T03:31:03.489Z,54.97
2018-02-01T03:33:31.027Z,63.97
2018-02-01T03:35:58.608Z,57.37
2018-02-01T03:38:26.878Z,52.67
2018-02-01T03:40:54.474Z,51.50
2018-02-01T03:43:22.014Z,57.30
2018-02-01T03:45:50.432Z,53.77
2018-02-01T03:48:18.766Z,55.80
2018-02-01T03:50:46.296Z,54.63
2018-02-01T03:53:13.829Z,62.23
2018-02-01T03:55:41.623Z,56.47
2018-02-01T03:58:09.281Z,54.60
2018-02-01T04:00:36.983Z,52.70
2018-02-01T04:03:04.562Z,53.13
2018-02-01T04:05:32.131Z,56.63
2018-02-01T04:07:59.674Z,51.40
2018-02-01T04:10:27.202Z,59.90
2018-02-01T04:12:54.875Z,57.00
2018-02-01T04:15:22.658Z,59.83
2018-02-01T04:17:50.486Z,63.27
2018-02-01T04:20:18.067Z,61.10
2018-02-01T04:22:46.329Z,61.83
2018-02-01T04:25:13.887Z,54.43
2018-02-01T04:27:41.420Z,55.40
2018-02-01T04:30:09.984Z,57.57
2018-02-01T04:32:38.429Z,55.37
2018-02-01T04:35:06.766Z,54.33
2018-02-01T04:37:34.325Z,50.03
2018-02-01T04:40:01.855Z,54.30
2018-02-01T04:42:30.178Z,49.33
2018-02-01T04:44:57.826Z,45.10
2018-02-01T04:47:25.365Z,49.90
2018-02-01T04:49:53.736Z,52.70
2018-02-01T04:52:22.117Z,50.43
2018-02-01T04:54:50.450Z,50.60
2018-02-01T04:57:18.004Z,55.07
2018-02-01T04:59:45.601Z,53.37
2018-02-01T05:02:13.147Z,50.57
2018-02-01T05:04:40.682Z,52.43
2018-02-01T05:07:08.248Z,54.20
2018-02-01T05:09:35.882Z,50.80
2018-02-01T05:12:03.451Z,50.90
2018-02-01T05:14:31.313Z,53.60
2018-02-01T05:16:58.934Z,61.80
2018-02-01T05:19:28.473Z,50.13
2018-02-01T05:21:56.088Z,53.10
2018-02-01T05:24:23.672Z,54.63
2018-02-01T05:26:51.962Z,51.00
2018-02-01T05:29:20.297Z,55.90
2018-02-01T05:31:47.838Z,48.20
2018-02-01T05:34:15.403Z,52.97
2018-02-01T05:36:43.724Z,55.67
2018-02-01T05:39:12.049Z,57.00
2018-02-01T05:41:40.404Z,58.27
2018-02-01T05:44:08.392Z,55.73
2018-02-01T05:46:35.954Z,49.50
2018-02-01T05:49:03.476Z,48.73
2018-02-01T05:51:31.793Z,48.50
2018-02-01T05:53:59.452Z,55.77
2018-02-01T05:56:27.007Z,57.43
2018-02-01T05:58:54.615Z,52.90
2018-02-01T06:01:22.157Z,58.73
2018-02-01T06:03:49.756Z,45.23
2018-02-01T06:06:18.747Z,55.00
2018-02-01T06:08:46.310Z,51.57
2018-02-01T06:11:13.863Z,48.10
2018-02-01T06:13:41.563Z,51.73
2018-02-01T06:16:09.413Z,56.67
2018-02-01T06:18:36.947Z,53.03
2018-02-01T06:21:05.795Z,46.53
2018-02-01T06:23:33.404Z,58.50
2018-02-01T06:26:00.982Z,53.43
2018-02-01T06:28:28.549Z,57.03
2018-02-01T06:30:56.121Z,48.20
2018-02-01T06:33:23.654Z,53.33
2018-02-01T06:35:51.200Z,53.10
2018-02-01T06:38:19.572Z,55.20
2018-02-01T06:40:47.766Z,47.50
2018-02-01T06:43:15.801Z,42.07
2018-02-01T06:45:43.370Z,49.47
2018-02-01T06:48:10.951Z,48.63
2018-02-01T06:50:39.193Z,48.73
2018-02-01T06:53:06.788Z,56.53
2018-02-01T06:55:34.325Z,46.33
2018-02-01T06:58:01.893Z,56.80
2018-02-01T07:00:35.260Z,45.27
2018-02-01T07:03:02.804Z,48.47
2018-02-01T07:05:30.427Z,41.27
2018-02-01T07:07:58.048Z,37.60
2018-02-01T07:10:26.498Z,34.97
2018-02-01T07:12:54.033Z,43.10
2018-02-01T07:15:21.963Z,45.97
2018-02-01T07:17:49.511Z,45.30
2018-02-01T07:20:17.104Z,51.43
2018-02-01T07:22:45.479Z,51.10
2018-02-01T07:25:13.016Z,59.37
2018-02-01T07:27:40.613Z,56.27
2018-02-01T07:30:08.212Z,49.67
2018-02-01T07:32:36.407Z,44.83
2018-02-01T07:35:04.471Z,59.20
2018-02-01T07:37:37.479Z,42.87
2018-02-01T07:40:05.956Z,47.77
2018-02-01T07:42:33.502Z,44.27
2018-02-01T07:45:01.608Z,44.97
2018-02-01T07:47:29.920Z,50.80
2018-02-01T07:49:57.500Z,47.13
2018-02-01T07:52:25.055Z,48.27
2018-02-01T07:54:52.586Z,41.13
2018-02-01T07:57:20.195Z,42.10
2018-02-01T07:59:48.348Z,40.50
2018-02-01T08:02:15.957Z,44.27
2018-02-01T08:04:43.525Z,50.27
2018-02-01T08:07:11.845Z,67.63
2018-02-01T08:09:39.417Z,46.40
2018-02-01T08:12:06.950Z,61.73
2018-02-01T08:14:34.560Z,45.33
2018-02-01T08:17:02.144Z,55.70
2018-02-01T08:19:29.722Z,55.83
2018-02-01T08:21:57.278Z,56.40
2018-02-01T08:24:25.580Z,66.00
2018-02-01T08:26:53.169Z,81.07
2018-02-01T08:29:20.751Z,67.10
2018-02-01T08:31:49.081Z,65.47
2018-02-01T08:34:16.667Z,70.67
2018-02-01T08:36:44.188Z,81.87
2018-02-01T08:39:11.886Z,75.07
2018-02-01T08:41:39.532Z,70.57
2018-02-01T08:44:07.846Z,79.37
2018-02-01T08:46:35.461Z,80.23
2018-02-01T08:49:03.951Z,76.13
2018-02-01T08:51:31.508Z,96.33
2018-02-01T08:53:59.151Z,77.30
2018-02-01T08:56:27.351Z,73.87
2018-02-01T08:58:54.946Z,71.73
2018-02-01T09:01:22.556Z,74.33
2018-02-01T09:03:50.940Z,77.43
2018-02-01T09:06:18.497Z,69.50
2018-02-01T09:08:46.576Z,87.40
2018-02-01T09:11:14.547Z,70.60
2018-02-01T09:13:42.135Z,83.43
2018-02-01T09:16:10.497Z,70.63
2018-02-01T09:18:38.055Z,76.83
2018-02-01T09:21:05.668Z,84.20
2018-02-01T09:23:34.122Z,86.40
2018-02-01T09:26:01.728Z,83.03
2018-02-01T09:28:29.349Z,77.07
2018-02-01T09:30:57.100Z,80.33
2018-02-01T09:33:24.645Z,76.70
2018-02-01T09:35:52.190Z,75.03
2018-02-01T09:38:19.773Z,71.63
2018-02-01T09:40:47.326Z,67.93
2018-02-01T09:43:15.505Z,73.60
2018-02-01T09:45:43.142Z,75.77
2018-02-01T09:48:10.696Z,74.03
2018-02-01T09:50:38.300Z,66.10
2018-02-01T09:53:05.985Z,72.73
2018-02-01T09:55:33.552Z,64.00
2018-02-01T09:58:01.966Z,68.80
2018-02-01T10:00:29.627Z,58.83
2018-02-01T10:02:57.305Z,64.37
2018-02-01T10:05:24.872Z,64.20
2018-02-01T10:07:53.446Z,53.47
2018-02-01T10:13:17.156Z,53.50
2018-02-01T10:15:44.788Z,58.73
2018-02-01T10:18:12.370Z,75.87
2018-02-01T10:20:40.111Z,65.20
2018-02-01T10:23:07.711Z,60.57
2018-02-01T10:25:35.276Z,55.20
2018-02-01T10:28:02.847Z,47.93
2018-02-01T10:30:31.688Z,53.70
2018-02-01T10:32:59.245Z,46.47
2018-02-01T10:35:26.883Z,66.83
2018-02-01T10:37:54.576Z,56.33
2018-02-01T10:40:22.118Z,64.03
2018-02-01T10:42:49.681Z,57.77
2018-02-01T10:45:17.281Z,60.37
2018-02-01T10:47:44.846Z,60.80
2018-02-01T10:50:12.435Z,51.00
2018-02-01T10:52:40.221Z,51.47
2018-02-01T10:55:09.000Z,60.43
2018-02-01T10:57:36.568Z,53.47
2018-02-01T11:00:05.272Z,51.40
2018-02-01T11:02:32.831Z,48.13
2018-02-01T11:05:00.499Z,58.90
2018-02-01T11:07:28.194Z,47.57
2018-02-01T11:09:55.815Z,48.73
2018-02-01T11:12:23.416Z,47.13
2018-02-01T11:14:51.012Z,51.97
2018-02-01T11:17:19.012Z,44.87
2018-02-01T11:19:46.593Z,50.83
2018-02-01T11:22:14.157Z,53.47
2018-02-01T11:24:41.752Z,48.53
2018-02-01T11:27:09.325Z,56.50
2018-02-01T11:29:36.866Z,46.77
2018-02-01T11:32:05.751Z,51.60
2018-02-01T11:34:33.337Z,51.63
2018-02-01T11:37:00.889Z,53.60
2018-02-01T11:39:29.279Z,54.60
2018-02-01T11:41:56.891Z,58.83
2018-02-01T11:44:24.451Z,51.07
2018-02-01T11:46:52.135Z,55.97
2018-02-01T11:49:20.503Z,56.57
2018-02-01T11:51:48.631Z,51.80
2018-02-01T11:54:16.233Z,53.57
2018-02-01T11:56:43.747Z,54.80
2018-02-01T11:59:12.104Z,61.33
2018-02-01T12:01:40.468Z,61.20
2018-02-01T12:04:08.269Z,55.87
2018-02-01T12:06:36.025Z,65.13
2018-02-01T12:09:04.398Z,68.27
2018-02-01T12:11:32.200Z,54.90
2018-02-01T12:13:59.818Z,69.23
2018-02-01T12:16:27.707Z,62.97
2018-02-01T12:18:55.556Z,50.97
2018-02-01T12:21:23.133Z,53.03
2018-02-01T12:23:50.935Z,59.30
2018-02-01T12:26:18.470Z,57.93
2018-02-01T12:28:45.998Z,51.90
2018-02-01T12:31:13.680Z,47.10
2018-02-01T12:33:41.204Z,48.57
2018-02-01T12:36:09.493Z,51.70
2018-02-01T12:38:37.138Z,54.97
2018-02-01T12:41:04.668Z,56.47
2018-02-01T12:43:32.225Z,50.93
2018-02-01T12:45:59.774Z,52.87
2018-02-01T12:48:27.346Z,49.50
2018-02-01T12:50:54.887Z,47.73
2018-02-01T12:53:22.466Z,55.50
2018-02-01T12:55:50.008Z,40.53
2018-02-01T12:58:17.632Z,41.80
2018-02-01T13:00:46.008Z,47.27
2018-02-01T13:03:14.476Z,36.60
2018-02-01T13:05:42.083Z,41.33
2018-02-01T13:08:09.614Z,36.27
2018-02-01T13:10:37.145Z,50.63
2018-02-01T13:13:06.296Z,38.57
2018-02-01T13:15:33.883Z,41.27
2018-02-01T13:18:01.502Z,35.10
2018-02-01T13:20:29.086Z,36.63
2018-02-01T13:22:56.656Z,36.90
2018-02-01T13:25:24.218Z,39.83
2018-02-01T13:27:51.852Z,41.80
2018-02-01T13:30:19.494Z,39.70
2018-02-01T13:32:47.951Z,34.40
2018-02-01T13:35:16.173Z,38.60
2018-02-01T13:37:44.972Z,42.20
2018-02-01T13:40:12.535Z,37.90
2018-02-01T13:42:40.105Z,37.90
2018-02-01T13:45:08.335Z,34.77
2018-02-01T13:47:36.626Z,37.77
2018-02-01T13:50:05.060Z,38.80
2018-02-01T13:52:32.647Z,45.03
2018-02-01T13:55:00.346Z,40.73
2018-02-01T13:57:27.889Z,38.20
2018-02-01T13:59:55.446Z,40.10
2018-02-01T14:02:23.136Z,40.37
2018-02-01T14:04:50.741Z,47.83
2018-02-01T14:07:19.059Z,45.10
2018-02-01T14:09:46.812Z,45.60
2018-02-01T14:12:14.417Z,41.57
2018-02-01T14:14:42.710Z,37.40
2018-02-01T14:17:10.794Z,41.37
2018-02-01T14:19:38.484Z,37.50
2018-02-01T14:22:06.933Z,40.67
2018-02-01T14:24:34.649Z,39.90
2018-02-01T14:27:02.234Z,41.53
2018-02-01T14:29:29.877Z,39.50
2018-02-01T14:31:57.601Z,41.40
2018-02-01T14:34:25.975Z,33.37
2018-02-01T14:36:54.255Z,40.40
2018-02-01T14:39:22.614Z,44.07
2018-02-01T14:41:51.029Z,41.30
2018-02-01T14:44:18.598Z,39.90
2018-02-01T14:46:46.151Z,35.37
2018-02-01T14:49:13.735Z,35.03
2018-02-01T14:51:41.337Z,41.33
2018-02-01T14:54:08.883Z,43.80
2018-02-01T14:56:36.636Z,45.47
2018-02-01T14:59:04.378Z,43.40
2018-02-01T15:01:31.949Z,42.43
2018-02-01T15:03:59.474Z,39.40
2018-02-01T15:06:27.056Z,36.17
2018-02-01T15:08:54.974Z,37.83
2018-02-01T15:11:22.539Z,38.60
2018-02-01T15:13:50.866Z,38.70
2018-02-01T15:16:18.657Z,37.27
2018-02-01T15:18:46.893Z,34.53
2018-02-01T15:21:14.485Z,34.57
2018-02-01T15:23:43.321Z,37.47
2018-02-01T15:26:14.137Z,34.53
2018-02-01T15:28:43.287Z,35.90
2018-02-01T15:31:12.706Z,35.10
2018-02-01T15:33:42.450Z,36.17
2018-02-01T15:36:10.598Z,41.97
2018-02-01T15:38:38.362Z,32.10
2018-02-01T15:41:07.127Z,37.10
2018-02-01T15:43:37.354Z,32.97
2018-02-01T15:46:06.097Z,29.80
2018-02-01T15:48:34.505Z,30.30
2018-02-01T15:51:02.027Z,36.83
2018-02-01T15:53:29.750Z,32.50
2018-02-01T15:55:57.507Z,29.67
2018-02-01T15:58:25.080Z,39.10
2018-02-01T16:00:52.806Z,31.40
2018-02-01T16:03:20.328Z,35.13
2018-02-01T16:05:47.864Z,34.63
2018-02-01T16:08:15.500Z,49.63
2018-02-01T16:10:43.037Z,45.90
2018-02-01T16:13:11.395Z,46.73
2018-02-01T16:15:38.984Z,46.67
2018-02-01T16:18:06.535Z,32.93
2018-02-01T16:20:35.169Z,15.67
2018-02-01T16:23:02.708Z,12.90
2018-02-01T16:25:30.299Z,8.73
2018-02-01T16:27:59.778Z,7.67
2018-02-01T16:30:27.426Z,3.77
2018-02-01T16:32:54.983Z,2.53
2018-02-01T16:35:22.576Z,3.00
2018-02-01T16:37:50.169Z,4.00
2018-02-01T16:40:18.585Z,3.17
2018-02-01T16:42:46.151Z,2.93
2018-02-01T16:45:13.736Z,3.00
2018-02-01T16:47:41.386Z,3.57
2018-02-01T16:50:09.526Z,3.23
2018-02-01T16:52:37.082Z,5.73
2018-02-01T16:55:05.652Z,6.80
2018-02-01T16:57:33.331Z,5.10
2018-02-01T17:00:00.929Z,7.50
2018-02-01T17:02:28.613Z,4.37
2018-02-01T17:04:56.375Z,4.43
2018-02-01T17:07:24.002Z,4.23
2018-02-01T17:09:51.549Z,3.53
2018-02-01T17:12:19.924Z,3.83
2018-02-01T17:27:43.357Z,5.33
2018-02-01T17:30:11.677Z,7.10
2018-02-01T17:32:39.286Z,4.63
2018-02-01T17:35:07.906Z,4.60
2018-02-01T17:37:35.454Z,4.50
2018-02-01T17:40:03.253Z,5.33
2018-02-01T17:42:30.786Z,4.50
2018-02-01T17:44:58.334Z,4.47
2018-02-01T17:47:26.053Z,5.03
2018-02-01T17:49:53.641Z,4.57
2018-02-01T17:52:21.310Z,3.83
2018-02-01T17:54:49.677Z,4.03
2018-02-01T17:57:17.650Z,3.10
2018-02-01T17:59:45.988Z,4.50
2018-02-01T18:02:13.584Z,5.23
2018-02-01T18:04:41.229Z,2.83
2018-02-01T18:07:09.101Z,4.73
2018-02-01T18:09:37.013Z,5.83
2018-02-01T18:21:49.640Z,4.60
2018-02-01T18:24:17.203Z,2.97
2018-02-01T18:26:45.255Z,4.10
2018-02-01T18:29:12.783Z,4.90
2018-02-01T18:31:40.375Z,5.97
2018-02-01T18:34:08.814Z,4.87
2018-02-01T18:36:42.414Z,3.60
2018-02-01T18:39:10.240Z,7.77
2018-02-01T18:41:38.265Z,3.47
2018-02-01T18:44:06.715Z,4.43
2018-02-01T18:46:35.100Z,4.43
2018-02-01T18:49:02.661Z,5.10
2018-02-01T18:51:30.279Z,5.70
2018-02-01T18:53:57.856Z,4.57
2018-02-01T18:56:26.027Z,5.57
2018-02-01T18:58:53.816Z,11.53
2018-02-01T19:01:22.008Z,5.07
2018-02-01T19:03:50.331Z,6.67
2018-02-01T19:06:18.438Z,5.53
2018-02-01T19:08:46.899Z,5.67
2018-02-01T19:11:14.534Z,6.60
2018-02-01T19:13:42.949Z,9.17
2018-02-01T19:16:10.504Z,7.10
2018-02-01T19:18:38.061Z,7.53
2018-02-01T19:21:05.821Z,7.03
2018-02-01T19:23:33.403Z,8.17
2018-02-01T19:26:00.938Z,8.47
2018-02-01T19:28:28.619Z,7.63
2018-02-01T19:30:56.297Z,7.93
2018-02-01T19:33:23.835Z,8.03
2018-02-01T19:35:51.410Z,6.87
2018-02-01T19:38:19.798Z,8.47
2018-02-01T19:40:47.508Z,7.00
2018-02-01T19:43:16.034Z,8.47
2018-02-01T19:45:44.391Z,7.67
2018-02-01T19:48:12.499Z,6.33
2018-02-01T19:50:40.945Z,6.87
2018-02-01T19:53:08.572Z,6.27
2018-02-01T19:55:36.702Z,7.97
2018-02-01T19:58:05.186Z,7.73
2018-02-01T20:00:33.557Z,6.10
2018-02-01T20:03:01.292Z,7.90
2018-02-01T20:05:28.932Z,7.10
2018-02-01T20:07:56.533Z,7.47
2018-02-01T20:10:24.093Z,8.60
2018-02-01T20:12:51.768Z,9.20
2018-02-01T20:15:19.445Z,6.57
2018-02-01T20:17:47.917Z,6.03
2018-02-01T20:20:16.406Z,6.27
2018-02-01T20:22:44.033Z,5.47
2018-02-01T20:25:11.772Z,6.90
2018-02-01T20:27:39.443Z,6.53
2018-02-01T20:30:07.082Z,6.00
2018-02-01T20:32:35.141Z,6.97
2018-02-01T20:35:02.986Z,5.13
2018-02-01T20:37:30.830Z,7.33
2018-02-01T20:39:58.544Z,5.20
2018-02-01T20:42:26.328Z,7.40
2018-02-01T20:44:54.064Z,5.43
2018-02-01T20:47:22.158Z,5.30
2018-02-01T20:49:49.887Z,7.53
2018-02-01T20:52:19.282Z,5.40
2018-02-01T20:54:47.260Z,11.20
2018-02-01T20:57:15.232Z,5.53
2018-02-01T20:59:42.960Z,6.13
2018-02-01T21:02:10.523Z,6.43
2018-02-01T21:04:38.184Z,6.40
2018-02-01T21:07:05.955Z,5.73
2018-02-01T21:09:33.922Z,5.97
2018-02-01T21:12:01.507Z,6.57
2018-02-01T21:14:29.958Z,4.27
2018-02-01T21:16:57.905Z,4.33
2018-02-01T21:19:25.824Z,4.43
2018-02-01T21:21:53.381Z,4.60
2018-02-01T21:24:20.962Z,4.40
2018-02-01T21:26:49.348Z,4.57
2018-02-01T21:29:16.959Z,5.20
2018-02-01T21:31:44.898Z,4.33
2018-02-01T21:34:13.717Z,5.27
2018-02-01T21:36:41.354Z,3.67
2018-02-01T21:39:09.215Z,4.37
2018-02-01T21:41:37.091Z,4.03
2018-02-01T21:44:05.361Z,5.30
2018-02-01T21:46:33.340Z,4.13
2018-02-01T21:49:02.248Z,3.93
2018-02-01T21:51:30.228Z,3.97
2018-02-01T21:53:57.839Z,3.93
2018-02-01T21:56:25.478Z,3.50
2018-02-01T21:58:53.136Z,3.37
2018-02-01T22:01:21.493Z,2.73
2018-02-01T22:03:49.120Z,6.23
2018-02-01T22:06:16.795Z,2.70
2018-02-01T22:08:44.910Z,3.40
2018-02-01T22:11:12.505Z,5.27
2018-02-01T22:13:40.451Z,2.97
2018-02-01T22:16:08.797Z,3.70
2018-02-01T22:18:37.432Z,2.73
2018-02-01T22:21:05.037Z,3.30
2018-02-01T22:23:32.869Z,3.53
2018-02-01T22:26:00.448Z,2.50
2018-02-01T22:28:29.749Z,2.63
2018-02-01T22:30:57.477Z,2.30
2018-02-01T22:33:25.084Z,2.70
2018-02-01T22:35:52.769Z,2.30
2018-02-01T22:38:20.695Z,2.30
2018-02-01T22:40:48.596Z,4.33
2018-02-01T22:43:17.194Z,2.00
2018-02-01T22:45:46.085Z,2.67
2018-02-01T22:48:14.242Z,1.90
2018-02-01T22:50:41.795Z,4.67
2018-02-01T22:53:09.460Z,2.00
2018-02-01T22:55:37.045Z,1.77
2018-02-01T22:58:04.737Z,2.07
2018-02-01T23:00:33.236Z,1.50
2018-02-01T23:03:00.859Z,1.20
2018-02-01T23:05:30.058Z,1.73
2018-02-01T23:07:58.479Z,3.03
2018-02-01T23:10:26.868Z,3.00
2018-02-01T23:12:54.480Z,1.13
2018-02-01T23:15:22.086Z,1.50
2018-02-01T23:17:49.694Z,1.93
2018-02-01T23:20:17.831Z,1.00
2018-02-01T23:22:45.523Z,1.10
2018-02-01T23:25:13.235Z,5.00
2018-02-01T23:27:40.857Z,1.23
2018-02-01T23:30:09.470Z,1.50
2018-02-01T23:42:17.085Z,1.07
2018-02-01T23:44:44.688Z,1.30
2018-02-01T23:47:12.270Z,1.77
2018-02-01T23:49:39.848Z,3.83
2018-02-01T23:52:07.463Z,1.40
2018-02-01T23:54:35.045Z,1.20
2018-02-01T23:57:03.305Z,1.30
2018-02-01T23:59:30.857Z,1.33
